createdAt,value
2019-01-03T00:01:22.420Z,102156.06
2019-01-03T00:04:18.549Z,102151.17
2019-01-03T00:07:12.767Z,102153.89
2019-01-03T00:09:58.930Z,102156.95
2019-01-03T00:12:40.403Z,102155.14
2019-01-03T00:15:20.414Z,102149.66
2019-01-03T00:18:16.802Z,102149.92
2019-01-03T00:20:55.461Z,102150.12
2019-01-03T00:23:50.630Z,102142.63
2019-01-03T00:26:53.597Z,102152.30
2019-01-03T00:29:45.425Z,102154.97
2019-01-03T00:32:40.658Z,102161.03
2019-01-03T00:35:46.619Z,102166.02
2019-01-03T00:38:37.796Z,102164.81
2019-01-03T00:41:28.549Z,102159.16
2019-01-03T00:44:18.208Z,102164.64
2019-01-03T00:47:10.856Z,102166.38
2019-01-03T00:50:02.283Z,102164.16
2019-01-03T00:52:42.556Z,102165.11
2019-01-03T00:55:41.121Z,102173.14
2019-01-03T00:58:35.511Z,102174.41
2019-01-03T01:01:45.056Z,102169.36
2019-01-03T01:04:41.491Z,102183.28
2019-01-03T01:07:38.234Z,102183.75
2019-01-03T01:10:35.182Z,102185.06
2019-01-03T01:13:14.028Z,102178.31
2019-01-03T01:15:53.290Z,102172.14
2019-01-03T01:18:41.804Z,102165.78
2019-01-03T01:21:31.881Z,102176.09
2019-01-03T01:24:26.895Z,102183.75
2019-01-03T01:27:09.259Z,102199.47
2019-01-03T01:29:48.063Z,102203.39
2019-01-03T01:32:37.925Z,102215.19
2019-01-03T01:35:17.901Z,102217.91
2019-01-03T01:38:04.863Z,102223.75
2019-01-03T01:40:43.683Z,102225.48
2019-01-03T01:43:21.978Z,102222.87
2019-01-03T01:46:19.253Z,102232.25
2019-01-03T01:49:15.995Z,102231.58
2019-01-03T01:52:24.416Z,102239.75
2019-01-03T01:55:13.473Z,102233.20
2019-01-03T01:57:52.508Z,102232.55
2019-01-03T02:00:32.030Z,102238.05
2019-01-03T02:03:18.858Z,102239.52
2019-01-03T02:06:05.341Z,102234.52
2019-01-03T02:08:44.800Z,102234.11
2019-01-03T02:11:32.832Z,102236.48
2019-01-03T02:14:12.355Z,102232.86
2019-01-03T02:17:23.348Z,102237.41
2019-01-03T02:20:20.747Z,102234.41
2019-01-03T02:23:27.947Z,102239.24
2019-01-03T02:26:18.734Z,102234.16
2019-01-03T02:29:12.222Z,102225.61
2019-01-03T02:31:52.774Z,102229.86
2019-01-03T02:34:31.609Z,102232.64
2019-01-03T02:37:28.865Z,102235.91
2019-01-03T02:40:26.836Z,102223.30
2019-01-03T02:43:17.440Z,102223.27
2019-01-03T02:46:06.155Z,102223.88
2019-01-03T02:48:53.514Z,102215.03
2019-01-03T02:51:46.366Z,102208.28
2019-01-03T02:54:25.152Z,102200.95
2019-01-03T02:57:18.398Z,102196.20
2019-01-03T03:00:14.171Z,102197.47
2019-01-03T03:03:06.384Z,102188.42
2019-01-03T03:06:01.851Z,102189.91
2019-01-03T03:08:57.338Z,102181.88
2019-01-03T03:11:36.845Z,102176.95
2019-01-03T03:14:15.658Z,102179.58
2019-01-03T03:17:08.454Z,102176.47
2019-01-03T03:19:52.015Z,102170.70
2019-01-03T03:22:44.752Z,102171.59
2019-01-03T03:25:23.309Z,102167.17
2019-01-03T03:28:02.069Z,102172.58
2019-01-03T03:30:40.429Z,102163.94
2019-01-03T03:33:19.839Z,102158.81
2019-01-03T03:36:15.239Z,102156.31
2019-01-03T03:39:13.520Z,102165.94
2019-01-03T03:42:22.383Z,102168.73
2019-01-03T03:45:16.840Z,102166.11
2019-01-03T03:48:11.494Z,102170.86
2019-01-03T03:51:04.096Z,102179.13
2019-01-03T03:53:52.251Z,102186.13
2019-01-03T03:56:38.325Z,102175.81
2019-01-03T03:59:36.803Z,102174.14
2019-01-03T04:02:44.402Z,102167.91
2019-01-03T04:05:53.110Z,102155.95
2019-01-03T04:08:44.032Z,102152.95
2019-01-03T04:11:22.549Z,102169.83
2019-01-03T04:14:16.866Z,102168.64
2019-01-03T04:17:13.240Z,102171.92
2019-01-03T04:20:10.947Z,102163.84
2019-01-03T04:23:17.471Z,102159.58
2019-01-03T04:25:56.691Z,102156.80
2019-01-03T04:28:49.676Z,102160.45
2019-01-03T04:31:28.320Z,102157.70
2019-01-03T04:34:23.736Z,102153.59
2019-01-03T04:37:12.894Z,102153.54
2019-01-03T04:40:01.868Z,102158.11
2019-01-03T04:42:55.264Z,102163.84
2019-01-03T04:45:51.667Z,102158.99
2019-01-03T04:48:30.252Z,102158.40
2019-01-03T04:51:23.647Z,102158.03
2019-01-03T04:54:20.599Z,102154.17
2019-01-03T04:57:10.702Z,102148.22
2019-01-03T05:00:04.464Z,102150.48
2019-01-03T05:03:10.629Z,102155.69
2019-01-03T05:06:14.949Z,102151.73
2019-01-03T05:09:04.160Z,102156.06
2019-01-03T05:11:42.905Z,102156.89
2019-01-03T05:14:35.897Z,102158.12
2019-01-03T05:17:30.587Z,102155.36
2019-01-03T05:20:31.101Z,102151.94
2019-01-03T05:23:10.731Z,102148.84
2019-01-03T05:26:03.207Z,102153.14
2019-01-03T05:28:57.492Z,102147.52
2019-01-03T05:31:51.156Z,102148.55
2019-01-03T05:34:43.819Z,102147.41
2019-01-03T05:37:36.260Z,102150.15
2019-01-03T05:40:37.263Z,102148.75
2019-01-03T05:43:26.391Z,102152.85
2019-01-03T05:46:17.074Z,102144.59
2019-01-03T05:49:09.512Z,102146.91
2019-01-03T05:51:48.676Z,102146.78
2019-01-03T05:54:43.137Z,102145.16
2019-01-03T05:57:51.487Z,102152.42
2019-01-03T06:00:40.669Z,102159.29
2019-01-03T06:03:34.253Z,102162.48
2019-01-03T06:06:36.663Z,102157.73
2019-01-03T06:09:15.370Z,102161.45
2019-01-03T06:11:59.023Z,102160.59
2019-01-03T06:14:39.399Z,102162.87
2019-01-03T06:17:33.396Z,102161.49
2019-01-03T06:20:42.210Z,102168.70
2019-01-03T06:23:36.987Z,102170.48
2019-01-03T06:26:15.768Z,102161.78
2019-01-03T06:29:08.970Z,102165.28
2019-01-03T06:32:03.477Z,102161.12
2019-01-03T06:34:59.745Z,102157.34
2019-01-03T06:37:54.082Z,102159.01
2019-01-03T06:40:47.057Z,102161.75
2019-01-03T06:43:42.041Z,102161.39
2019-01-03T06:46:50.668Z,102159.87
2019-01-03T06:49:41.650Z,102158.59
2019-01-03T06:52:41.286Z,102165.13
2019-01-03T06:55:23.693Z,102161.42
2019-01-03T06:58:02.713Z,102168.08
2019-01-03T07:00:51.135Z,102174.55
2019-01-03T07:03:31.370Z,102172.22
2019-01-03T07:06:24.178Z,102166.31
2019-01-03T07:09:17.011Z,102170.46
2019-01-03T07:12:07.630Z,102170.27
2019-01-03T07:14:58.846Z,102173.63
2019-01-03T07:17:55.590Z,102180.30
2019-01-03T07:20:59.706Z,102178.16
2019-01-03T07:23:48.904Z,102185.79
2019-01-03T07:26:27.620Z,102183.55
2019-01-03T07:29:21.173Z,102185.09
2019-01-03T07:32:15.051Z,102183.65
2019-01-03T07:34:53.754Z,102177.61
2019-01-03T07:37:32.161Z,102179.36
2019-01-03T07:40:20.326Z,102177.52
2019-01-03T07:43:16.051Z,102176.15
2019-01-03T07:46:23.225Z,102185.03
2019-01-03T07:49:29.189Z,102190.91
2019-01-03T07:52:08.056Z,102194.33
2019-01-03T07:54:59.083Z,102200.27
2019-01-03T07:57:54.194Z,102205.05
2019-01-03T08:00:45.812Z,102205.77
2019-01-03T08:03:26.153Z,102205.51
2019-01-03T08:06:19.547Z,102202.66
2019-01-03T08:08:58.346Z,102208.67
2019-01-03T08:11:37.045Z,102213.27
2019-01-03T08:14:15.673Z,102214.59
2019-01-03T08:17:11.354Z,102206.16
2019-01-03T08:20:02.773Z,102208.12
2019-01-03T08:22:41.378Z,102211.08
2019-01-03T08:25:35.167Z,102209.27
2019-01-03T08:28:42.150Z,102215.47
2019-01-03T08:31:48.524Z,102210.86
2019-01-03T08:34:56.015Z,102214.66
2019-01-03T08:37:56.548Z,102213.36
2019-01-03T08:40:49.811Z,102205.75
2019-01-03T08:43:40.217Z,102209.36
2019-01-03T08:46:39.669Z,102213.84
2019-01-03T08:49:34.614Z,102221.31
2019-01-03T08:52:38.735Z,102220.70
2019-01-03T08:55:45.659Z,102234.28
2019-01-03T08:58:29.530Z,102234.78
2019-01-03T09:01:18.929Z,102234.76
2019-01-03T09:03:58.156Z,102237.34
2019-01-03T09:06:36.768Z,102231.62
2019-01-03T09:09:30.043Z,102237.14
2019-01-03T09:12:09.491Z,102237.04
2019-01-03T09:15:04.285Z,102231.58
2019-01-03T09:17:49.967Z,102240.37
2019-01-03T09:20:39.652Z,102237.20
2019-01-03T09:23:18.879Z,102237.63
2019-01-03T09:26:15.417Z,102234.02
2019-01-03T09:29:12.162Z,102243.13
2019-01-03T09:32:07.883Z,102247.34
2019-01-03T09:34:46.951Z,102247.22
2019-01-03T09:37:33.481Z,102247.37
2019-01-03T09:40:28.827Z,102240.34
2019-01-03T09:43:29.155Z,102242.16
2019-01-03T09:46:02.166Z,102237.44
2019-01-03T09:48:35.614Z,102243.05
2019-01-03T09:51:08.444Z,102247.91
2019-01-03T09:53:41.433Z,102243.41
2019-01-03T09:56:14.845Z,102245.31
2019-01-03T09:58:48.721Z,102244.06
2019-01-03T10:01:23.312Z,102243.70
2019-01-03T10:03:59.687Z,102244.14
2019-01-03T10:06:38.144Z,102242.45
2019-01-03T10:09:11.607Z,102239.22
2019-01-03T10:11:48.929Z,102243.02
2019-01-03T10:14:21.984Z,102237.92
2019-01-03T10:16:55.121Z,102237.28
2019-01-03T10:19:28.152Z,102234.02
2019-01-03T10:22:01.349Z,102228.48
2019-01-03T10:24:37.941Z,102227.05
2019-01-03T10:27:12.242Z,102230.77
2019-01-03T10:29:45.174Z,102223.20
2019-01-03T10:32:18.635Z,102221.02
2019-01-03T10:34:56.244Z,102218.80
2019-01-03T10:37:29.247Z,102216.61
2019-01-03T10:40:02.886Z,102213.08
2019-01-03T10:42:36.416Z,102210.20
2019-01-03T10:45:13.874Z,102206.13
2019-01-03T10:47:49.655Z,102200.31
2019-01-03T10:50:23.672Z,102194.88
2019-01-03T10:52:57.264Z,102191.80
2019-01-03T10:55:30.313Z,102198.25
2019-01-03T10:58:04.469Z,102192.84
2019-01-03T11:00:38.942Z,102198.77
2019-01-03T11:03:13.752Z,102205.45
2019-01-03T11:05:49.538Z,102201.73
2019-01-03T11:08:25.831Z,102195.73
2019-01-03T11:11:02.182Z,102195.95
2019-01-03T11:13:36.800Z,102193.27
2019-01-03T11:16:20.094Z,102189.50
2019-01-03T11:18:55.431Z,102184.72
2019-01-03T11:21:31.247Z,102191.84
2019-01-03T11:24:09.086Z,102185.80
2019-01-03T11:26:43.398Z,102179.22
2019-01-03T11:29:19.313Z,102177.59
2019-01-03T11:31:56.368Z,102175.24
2019-01-03T11:34:29.262Z,102169.77
2019-01-03T11:37:04.670Z,102163.79
2019-01-03T11:39:37.805Z,102165.47
2019-01-03T11:42:11.685Z,102164.66
2019-01-03T11:44:44.789Z,102160.88
2019-01-03T11:47:19.659Z,102167.42
2019-01-03T11:49:53.171Z,102161.24
2019-01-03T11:52:26.109Z,102161.66
2019-01-03T11:54:59.774Z,102161.44
2019-01-03T11:57:33.748Z,102160.25
2019-01-03T12:00:10.401Z,102154.52
2019-01-03T12:02:46.108Z,102155.63
2019-01-03T12:05:20.950Z,102158.95
2019-01-03T12:07:55.031Z,102161.22
2019-01-03T12:10:29.615Z,102151.23
2019-01-03T12:13:03.588Z,102151.23
2019-01-03T12:15:38.006Z,102149.77
2019-01-03T12:18:12.343Z,102152.42
2019-01-03T12:20:46.858Z,102146.52
2019-01-03T12:23:22.211Z,102142.90
2019-01-03T12:25:56.487Z,102141.89
2019-01-03T12:28:30.649Z,102149.00
2019-01-03T12:31:06.792Z,102147.57
2019-01-03T12:33:40.616Z,102155.31
2019-01-03T12:36:15.224Z,102150.50
2019-01-03T12:39:08.973Z,102150.56
2019-01-03T12:41:44.831Z,102154.17
2019-01-03T12:44:21.278Z,102154.12
2019-01-03T12:46:54.754Z,102160.51
2019-01-03T12:49:28.112Z,102156.86
2019-01-03T12:52:03.289Z,102144.86
2019-01-03T12:54:36.739Z,102137.74
2019-01-03T12:57:10.480Z,102129.95
2019-01-03T12:59:43.587Z,102125.03
2019-01-03T13:02:17.082Z,102126.91
2019-01-03T13:04:51.858Z,102126.48
2019-01-03T13:07:25.924Z,102131.70
2019-01-03T13:10:00.499Z,102133.44
2019-01-03T13:12:33.775Z,102130.05
2019-01-03T13:15:12.128Z,102136.02
2019-01-03T13:17:49.060Z,102141.39
2019-01-03T13:20:21.960Z,102155.69
2019-01-03T13:22:56.926Z,102149.55
2019-01-03T13:25:31.470Z,102156.23
2019-01-03T13:28:05.536Z,102163.59
2019-01-03T13:30:42.323Z,102165.70
2019-01-03T13:33:15.678Z,102166.06
2019-01-03T13:36:04.980Z,102167.44
2019-01-03T13:38:42.369Z,102159.50
2019-01-03T13:41:16.050Z,102161.23
2019-01-03T13:43:49.158Z,102152.70
2019-01-03T13:46:22.180Z,102155.40
2019-01-03T13:48:57.989Z,102151.86
2019-01-03T13:51:31.847Z,102152.47
2019-01-03T13:54:08.049Z,102146.95
2019-01-03T13:56:41.980Z,102153.51
2019-01-03T13:59:15.982Z,102143.11
2019-01-03T14:01:50.062Z,102142.33
2019-01-03T14:04:39.747Z,102142.11
2019-01-03T14:07:17.389Z,102145.08
2019-01-03T14:09:50.454Z,102154.00
2019-01-03T14:12:26.545Z,102154.23
2019-01-03T14:15:00.213Z,102150.33
2019-01-03T14:17:39.436Z,102151.28
2019-01-03T14:20:16.315Z,102153.09
2019-01-03T14:22:51.294Z,102155.77
2019-01-03T14:25:24.716Z,102154.36
2019-01-03T14:27:59.502Z,102158.64
2019-01-03T14:30:32.552Z,102163.06
2019-01-03T14:33:08.003Z,102162.05
2019-01-03T14:35:42.040Z,102164.12
2019-01-03T14:38:16.989Z,102168.52
2019-01-03T14:40:50.383Z,102165.77
2019-01-03T14:43:25.539Z,102162.05
2019-01-03T14:45:59.226Z,102161.03
2019-01-03T14:48:35.492Z,102161.53
2019-01-03T14:51:10.372Z,102159.68
2019-01-03T14:53:44.483Z,102155.63
2019-01-03T14:56:19.713Z,102159.37
2019-01-03T14:58:53.251Z,102163.06
2019-01-03T15:01:27.114Z,102163.80
2019-01-03T15:04:00.922Z,102159.88
2019-01-03T15:06:34.458Z,102155.34
2019-01-03T15:09:08.704Z,102157.94
2019-01-03T15:11:42.565Z,102158.06
2019-01-03T15:14:16.616Z,102157.32
2019-01-03T15:16:51.378Z,102159.37
2019-01-03T15:19:27.515Z,102155.09
2019-01-03T15:22:00.727Z,102159.83
2019-01-03T15:24:35.464Z,102162.37
2019-01-03T15:27:11.906Z,102165.15
2019-01-03T15:29:46.529Z,102167.94
2019-01-03T15:32:19.629Z,102169.72
2019-01-03T15:34:58.431Z,102176.24
2019-01-03T15:37:31.539Z,102173.19
2019-01-03T15:40:07.047Z,102175.53
2019-01-03T15:42:43.599Z,102174.12
2019-01-03T15:45:17.642Z,102171.63
2019-01-03T15:47:52.531Z,102175.48
2019-01-03T15:50:26.851Z,102174.30
2019-01-03T15:52:59.867Z,102176.69
2019-01-03T15:55:33.443Z,102180.03
2019-01-03T15:58:07.677Z,102175.76
2019-01-03T16:00:42.582Z,102182.02
2019-01-03T16:03:17.353Z,102178.48
2019-01-03T16:05:51.526Z,102179.11
2019-01-03T16:08:24.881Z,102180.02
2019-01-03T16:11:00.943Z,102179.57
2019-01-03T16:13:35.202Z,102175.13
2019-01-03T16:16:09.151Z,102175.91
2019-01-03T16:18:42.380Z,102180.85
2019-01-03T16:21:16.279Z,102181.77
2019-01-03T16:23:50.655Z,102177.27
2019-01-03T16:26:25.287Z,102181.04
2019-01-03T16:29:00.980Z,102179.27
2019-01-03T16:31:35.522Z,102186.88
2019-01-03T16:34:09.017Z,102186.09
2019-01-03T16:36:45.317Z,102181.79
2019-01-03T16:39:20.276Z,102176.63
2019-01-03T16:41:56.381Z,102179.72
2019-01-03T16:44:32.430Z,102175.98
2019-01-03T16:47:07.502Z,102176.27
2019-01-03T16:49:41.863Z,102174.54
2019-01-03T16:52:17.316Z,102182.42
2019-01-03T16:54:50.321Z,102191.26
2019-01-03T16:57:25.364Z,102190.55
2019-01-03T16:59:59.330Z,102190.22
2019-01-03T17:02:32.495Z,102190.14
2019-01-03T17:05:09.823Z,102191.13
2019-01-03T17:07:51.391Z,102186.91
2019-01-03T17:10:25.533Z,102192.78
2019-01-03T17:13:01.777Z,102185.50
2019-01-03T17:15:37.593Z,102182.84
2019-01-03T17:18:10.845Z,102186.28
2019-01-03T17:20:49.599Z,102183.73
2019-01-03T17:23:24.226Z,102187.78
2019-01-03T17:25:58.511Z,102194.87
2019-01-03T17:28:32.908Z,102189.57
2019-01-03T17:31:05.991Z,102197.50
2019-01-03T17:33:40.003Z,102195.38
2019-01-03T17:36:13.549Z,102194.62
2019-01-03T17:38:47.180Z,102200.42
2019-01-03T17:41:21.852Z,102207.63
2019-01-03T17:43:59.238Z,102206.09
2019-01-03T17:46:32.355Z,102207.09
2019-01-03T17:49:08.825Z,102207.58
2019-01-03T17:51:48.279Z,102205.30
2019-01-03T17:54:24.534Z,102202.05
2019-01-03T17:56:57.812Z,102202.70
2019-01-03T17:59:31.999Z,102201.56
2019-01-03T18:02:07.679Z,102197.59
2019-01-03T18:04:41.764Z,102194.72
2019-01-03T18:07:15.675Z,102185.48
2019-01-03T18:09:56.253Z,102188.67
2019-01-03T18:12:29.252Z,102187.77
2019-01-03T18:15:04.620Z,102185.22
2019-01-03T18:17:38.099Z,102189.48
2019-01-03T18:20:18.494Z,102187.33
2019-01-03T18:22:51.830Z,102187.45
2019-01-03T18:25:27.714Z,102196.67
2019-01-03T18:28:01.922Z,102196.06
2019-01-03T18:30:37.358Z,102195.22
2019-01-03T18:33:16.134Z,102191.50
2019-01-03T18:35:50.861Z,102194.95
2019-01-03T18:38:24.664Z,102198.12
2019-01-03T18:40:59.015Z,102200.26
2019-01-03T18:43:35.587Z,102206.07
2019-01-03T18:46:09.005Z,102208.86
2019-01-03T18:48:42.762Z,102200.67
2019-01-03T18:51:16.640Z,102207.10
2019-01-03T18:53:50.757Z,102211.45
2019-01-03T18:56:25.544Z,102206.60
2019-01-03T18:58:59.382Z,102211.59
2019-01-03T19:01:33.223Z,102208.54
2019-01-03T19:04:06.810Z,102202.59
2019-01-03T19:06:39.831Z,102193.91
2019-01-03T19:09:12.817Z,102199.86
2019-01-03T19:11:46.215Z,102206.96
2019-01-03T19:14:19.269Z,102202.73
2019-01-03T19:16:52.910Z,102202.66
2019-01-03T19:19:27.032Z,102199.55
2019-01-03T19:22:00.266Z,102201.73
2019-01-03T19:24:33.480Z,102205.77
2019-01-03T19:27:07.320Z,102216.16
2019-01-03T19:29:47.657Z,102218.37
2019-01-03T19:32:26.617Z,102222.30
2019-01-03T19:35:00.240Z,102225.36
2019-01-03T19:37:33.334Z,102229.05
2019-01-03T19:40:11.483Z,102235.56
2019-01-03T19:42:47.581Z,102237.69
2019-01-03T19:45:23.440Z,102236.66
2019-01-03T19:48:05.788Z,102234.67
2019-01-03T19:50:42.681Z,102232.03
2019-01-03T19:53:20.589Z,102226.86
2019-01-03T19:55:56.924Z,102233.02
2019-01-03T19:58:31.819Z,102232.22
2019-01-03T20:01:06.203Z,102237.13
2019-01-03T20:03:40.890Z,102240.20
2019-01-03T20:06:15.851Z,102248.01
2019-01-03T20:08:52.791Z,102248.98
2019-01-03T20:11:25.717Z,102248.81
2019-01-03T20:13:58.904Z,102242.78
2019-01-03T20:16:32.764Z,102243.37
2019-01-03T20:19:10.070Z,102240.13
2019-01-03T20:21:43.606Z,102243.93
2019-01-03T20:24:18.961Z,102244.88
2019-01-03T20:26:52.335Z,102238.78
2019-01-03T20:29:25.311Z,102242.03
2019-01-03T20:31:58.488Z,102245.24
2019-01-03T20:34:33.721Z,102244.50
2019-01-03T20:37:09.870Z,102240.13
2019-01-03T20:39:47.415Z,102236.45
2019-01-03T20:42:21.925Z,102235.91
2019-01-03T20:44:56.959Z,102235.70
2019-01-03T20:47:32.346Z,102233.89
2019-01-03T20:50:06.761Z,102233.09
2019-01-03T20:52:41.782Z,102231.59
2019-01-03T20:55:16.762Z,102226.08
2019-01-03T20:57:50.850Z,102222.53
2019-01-03T21:00:30.308Z,102224.05
2019-01-03T21:03:06.506Z,102228.78
2019-01-03T21:05:40.442Z,102226.81
2019-01-03T21:08:18.933Z,102230.63
2019-01-03T21:10:52.909Z,102229.22
2019-01-03T21:13:28.027Z,102228.81
2019-01-03T21:16:02.447Z,102225.31
2019-01-03T21:18:35.635Z,102221.30
2019-01-03T21:21:09.197Z,102230.50
2019-01-03T21:23:42.808Z,102229.48
2019-01-03T21:26:16.779Z,102228.52
2019-01-03T21:28:51.744Z,102228.48
2019-01-03T21:31:26.088Z,102225.16
2019-01-03T21:34:00.152Z,102227.70
2019-01-03T21:36:33.998Z,102227.75
2019-01-03T21:39:11.114Z,102230.28
2019-01-03T21:41:45.275Z,102238.75
2019-01-03T21:44:19.293Z,102238.16
2019-01-03T21:46:53.514Z,102237.14
2019-01-03T21:49:33.627Z,102234.50
2019-01-03T21:52:09.365Z,102237.73
2019-01-03T21:54:44.361Z,102236.65
2019-01-03T21:57:18.304Z,102233.33
2019-01-03T21:59:53.072Z,102236.11
2019-01-03T22:02:27.853Z,102238.44
2019-01-03T22:05:07.195Z,102234.30
2019-01-03T22:07:42.050Z,102233.27
2019-01-03T22:10:15.846Z,102232.01
2019-01-03T22:12:51.550Z,102226.93
2019-01-03T22:15:24.617Z,102233.39
2019-01-03T22:18:00.031Z,102228.12
2019-01-03T22:20:37.163Z,102227.30
2019-01-03T22:23:13.470Z,102228.94
2019-01-03T22:25:47.404Z,102232.19
2019-01-03T22:28:22.177Z,102229.08
2019-01-03T22:30:56.878Z,102225.20
2019-01-03T22:33:34.387Z,102224.30
2019-01-03T22:36:08.006Z,102236.16
2019-01-03T22:38:41.153Z,102237.16
2019-01-03T22:41:15.581Z,102241.11
2019-01-03T22:43:50.726Z,102246.81
2019-01-03T22:46:24.382Z,102238.73
2019-01-03T22:48:59.548Z,102238.89
2019-01-03T22:51:34.415Z,102236.48
2019-01-03T22:54:09.017Z,102235.34
2019-01-03T22:56:44.038Z,102242.03
2019-01-03T22:59:17.218Z,102238.15
2019-01-03T23:01:51.743Z,102237.59
2019-01-03T23:04:25.524Z,102239.41
2019-01-03T23:06:58.507Z,102242.45
2019-01-03T23:09:33.853Z,102242.47
2019-01-03T23:12:08.046Z,102237.65
2019-01-03T23:14:41.095Z,102239.66
2019-01-03T23:17:14.497Z,102236.38
2019-01-03T23:19:48.622Z,102224.47
2019-01-03T23:22:22.502Z,102222.83
2019-01-03T23:24:57.226Z,102226.91
2019-01-03T23:27:30.109Z,102224.81
2019-01-03T23:30:10.730Z,102216.88
2019-01-03T23:32:45.726Z,102221.42
2019-01-03T23:35:18.706Z,102224.13
2019-01-03T23:37:52.628Z,102221.33
2019-01-03T23:40:27.441Z,102222.19
2019-01-03T23:43:00.287Z,102224.05
2019-01-03T23:45:35.715Z,102220.59
2019-01-03T23:48:08.768Z,102231.15
2019-01-03T23:50:41.737Z,102232.03
2019-01-03T23:53:14.962Z,102232.50
2019-01-03T23:55:54.830Z,102229.53
2019-01-03T23:58:29.461Z,102227.22
